Time;durP1;ratioP1;P1;durP2;ratioP2;P2;SDS_P1;SDS_P2;PMS_P1;PMS_P2;Temp;Humidity;BMP_temperature;BMP_pressure;BME280_temperature;BME280_humidity;BME280_pressure;Samples;Min_cycle;Max_cycle;Signal;HPM_P1;HPM_P2
2023/04/07 00:01:30;;;;;;;;;;;6.50;99.90;;;;;;5050520;28;19917;-63
2023/04/07 00:03:55;;;;;;;;;;;6.60;99.90;;;;;;5049474;28;19967;-63
2023/04/07 00:06:21;;;;;;;;;;;6.60;99.90;;;;;;5051515;28;20328;-64
2023/04/07 00:08:47;;;;;;;;;;;6.50;99.90;;;;;;5062611;28;19925;-63
2023/04/07 00:11:12;;;;;;;;;;;6.50;99.90;;;;;;5051710;28;19956;-63
2023/04/07 00:13:38;;;;;;;;;;;6.50;99.90;;;;;;5051911;28;19913;-63
2023/04/07 00:16:03;;;;;;;;;;;6.50;99.90;;;;;;5049205;28;19924;-64
2023/04/07 00:18:29;;;;;;;;;;;6.50;99.90;;;;;;5050554;28;19913;-64
2023/04/07 00:20:55;;;;;;;;;;;6.50;99.90;;;;;;5050554;28;19920;-63
2023/04/07 00:23:20;;;;;;;;;;;6.50;99.90;;;;;;5049925;28;19913;-63
2023/04/07 00:25:47;;;;;;;;;;;6.50;99.90;;;;;;5052792;28;20284;-64
2023/04/07 00:28:12;;;;;;;;;;;6.50;99.90;;;;;;5047526;28;20360;-64
2023/04/07 00:30:38;;;;;;;;;;;6.50;99.90;;;;;;5053080;28;19912;-63
2023/04/07 00:33:03;;;;;;;;;;;6.50;99.90;;;;;;5031033;28;20371;-64
2023/04/07 00:35:29;;;;;;;;;;;6.50;99.90;;;;;;5053980;28;19913;-63
2023/04/07 00:37:55;;;;;;;;;;;6.50;99.90;;;;;;5049477;28;20413;-63
2023/04/07 00:40:21;;;;;;;;;;;6.40;99.90;;;;;;5053820;28;19928;-64
2023/04/07 00:42:47;;;;;;;;;;;6.30;99.90;;;;;;5054022;28;19920;-63
2023/04/07 00:45:12;;;;;;;;;;;6.30;99.90;;;;;;5041989;28;19917;-65
2023/04/07 00:47:38;;;;;;;;;;;6.30;99.90;;;;;;5061570;28;19912;-64
2023/04/07 00:50:04;;;;;;;;;;;6.30;99.90;;;;;;5053271;28;19959;-64
2023/04/07 00:52:31;;;;;;;;;;;6.30;99.90;;;;;;5054696;28;19913;-63
2023/04/07 00:54:58;;;;;;;;;;;6.30;99.90;;;;;;5051461;28;19944;-63
2023/04/07 00:57:24;;;;;;;;;;;6.40;99.90;;;;;;5061141;28;19912;-63
2023/04/07 00:59:50;;;;;;;;;;;6.30;99.90;;;;;;5053736;28;19916;-63
2023/04/07 01:02:17;;;;;;;;;;;6.30;99.90;;;;;;5056736;28;19925;-63
2023/04/07 01:04:44;;;;;;;;;;;6.30;99.90;;;;;;5056502;28;19920;-63
2023/04/07 01:07:14;;;;;;;;;;;6.40;99.90;;;;;;5051583;28;19912;-63
2023/04/07 01:09:45;;;;;;;;;;;6.40;99.90;;;;;;5067914;28;19913;-63
2023/04/07 01:12:16;;;;;;;;;;;6.30;99.90;;;;;;5053970;28;19917;-63
2023/04/07 01:14:46;;;;;;;;;;;6.30;99.90;;;;;;5058867;28;19998;-63
2023/04/07 01:17:12;;;;;;;;;;;6.30;99.90;;;;;;5057729;28;19939;-62
2023/04/07 01:20:04;;;;;;;;;;;6.20;99.90;;;;;;5052949;28;19967;-63
2023/04/07 01:22:37;;;;;;;;;;;6.30;99.90;;;;;;5046508;28;19912;-62
2023/04/07 01:25:26;;;;;;;;;;;6.30;99.90;;;;;;5040116;28;19919;-63
2023/04/07 01:28:01;;;;;;;;;;;6.30;99.90;;;;;;5052307;28;19912;-63
2023/04/07 01:30:28;;;;;;;;;;;6.20;99.90;;;;;;5058901;28;20431;-62
2023/04/07 01:32:55;;;;;;;;;;;6.20;99.90;;;;;;5038024;28;20015;-64
2023/04/07 01:35:22;;;;;;;;;;;6.10;99.90;;;;;;5062334;28;19912;-65
2023/04/07 01:37:49;;;;;;;;;;;6.00;99.90;;;;;;5056780;28;19912;-64
2023/04/07 01:40:15;;;;;;;;;;;6.00;99.90;;;;;;5056668;28;19924;-64
2023/04/07 01:42:41;;;;;;;;;;;5.90;99.90;;;;;;5055225;28;19916;-64
2023/04/07 01:45:07;;;;;;;;;;;6.00;99.90;;;;;;5051574;28;19912;-64
2023/04/07 01:47:36;;;;;;;;;;;6.00;99.90;;;;;;5057255;28;19920;-64
2023/04/07 01:50:07;;;;;;;;;;;6.00;99.90;;;;;;5068265;28;19916;-64
2023/04/07 01:52:34;;;;;;;;;;;6.00;99.90;;;;;;5056655;28;20280;-64
2023/04/07 01:55:00;;;;;;;;;;;6.00;99.90;;;;;;5050257;28;19913;-63
2023/04/07 01:57:25;;;;;;;;;;;6.00;99.90;;;;;;5049886;28;19920;-63
2023/04/07 01:59:52;;;;;;;;;;;6.00;99.90;;;;;;5052253;28;19921;-64
2023/04/07 02:02:17;;;;;;;;;;;5.90;99.90;;;;;;5049866;28;20407;-63
2023/04/07 02:04:46;;;;;;;;;;;5.80;99.90;;;;;;5052483;28;19948;-63
2023/04/07 02:07:15;;;;;;;;;;;5.80;99.90;;;;;;5051466;28;19912;-63
2023/04/07 02:09:42;;;;;;;;;;;5.80;99.90;;;;;;5057416;28;20399;-65
2023/04/07 02:12:10;;;;;;;;;;;5.80;99.90;;;;;;5050459;28;19912;-63
2023/04/07 02:14:36;;;;;;;;;;;5.80;99.90;;;;;;5054067;28;19913;-63
2023/04/07 02:17:02;;;;;;;;;;;5.80;99.90;;;;;;5049335;28;20016;-63
2023/04/07 02:19:29;;;;;;;;;;;5.90;99.90;;;;;;5054152;28;20276;-63
2023/04/07 02:21:55;;;;;;;;;;;5.80;99.90;;;;;;5057543;28;20003;-63
2023/04/07 02:24:21;;;;;;;;;;;5.70;99.90;;;;;;5038892;28;19913;-63
2023/04/07 02:26:46;;;;;;;;;;;5.70;99.90;;;;;;5054909;28;19996;-63
2023/04/07 02:29:12;;;;;;;;;;;5.70;99.90;;;;;;5032800;28;19912;-63
2023/04/07 02:31:38;;;;;;;;;;;5.70;99.90;;;;;;5066703;28;19912;-63
2023/04/07 02:34:04;;;;;;;;;;;5.70;99.90;;;;;;5049624;28;19924;-63
2023/04/07 02:36:30;;;;;;;;;;;5.70;99.90;;;;;;5052071;28;19913;-63
2023/04/07 02:38:55;;;;;;;;;;;5.70;99.90;;;;;;5052202;28;19912;-63
2023/04/07 02:41:21;;;;;;;;;;;5.60;99.90;;;;;;5058606;28;20009;-62
2023/04/07 02:43:47;;;;;;;;;;;5.60;99.90;;;;;;5066886;28;19920;-63
2023/04/07 02:46:13;;;;;;;;;;;5.60;99.90;;;;;;5049523;28;19917;-63
2023/04/07 02:48:38;;;;;;;;;;;5.60;99.90;;;;;;5055875;28;19912;-63
2023/04/07 02:51:04;;;;;;;;;;;5.50;99.90;;;;;;5050881;28;19913;-63
2023/04/07 02:53:30;;;;;;;;;;;5.50;99.90;;;;;;5058888;28;19912;-63
2023/04/07 02:55:55;;;;;;;;;;;5.50;99.90;;;;;;5053113;28;19912;-62
2023/04/07 02:58:21;;;;;;;;;;;5.60;99.90;;;;;;5051192;28;20011;-63
2023/04/07 03:00:47;;;;;;;;;;;5.50;99.90;;;;;;5033724;28;19940;-63
2023/04/07 03:03:12;;;;;;;;;;;5.50;99.90;;;;;;5049040;28;20842;-63
2023/04/07 03:05:38;;;;;;;;;;;5.40;99.90;;;;;;5054799;28;19913;-64
2023/04/07 03:08:04;;;;;;;;;;;5.30;99.90;;;;;;5049533;28;20364;-64
2023/04/07 03:10:29;;;;;;;;;;;5.40;99.90;;;;;;5066555;28;20307;-64
2023/04/07 03:12:55;;;;;;;;;;;5.30;99.90;;;;;;5049163;28;19936;-64
2023/04/07 03:15:21;;;;;;;;;;;5.40;99.90;;;;;;5049921;28;19967;-65
2023/04/07 03:17:46;;;;;;;;;;;5.40;99.90;;;;;;5051091;28;19924;-64
2023/04/07 03:20:12;;;;;;;;;;;5.30;99.90;;;;;;5050380;28;20363;-63
2023/04/07 03:22:38;;;;;;;;;;;5.20;99.90;;;;;;5050770;28;20361;-65
2023/04/07 03:25:04;;;;;;;;;;;5.20;99.90;;;;;;5049087;28;19913;-63
2023/04/07 03:27:29;;;;;;;;;;;5.30;99.90;;;;;;5050587;28;19913;-64
2023/04/07 03:29:56;;;;;;;;;;;5.20;99.90;;;;;;5048365;28;20333;-64
2023/04/07 03:32:21;;;;;;;;;;;5.20;99.90;;;;;;5050980;28;19919;-64
2023/04/07 03:34:47;;;;;;;;;;;5.20;99.90;;;;;;5053017;28;20007;-64
2023/04/07 03:37:12;;;;;;;;;;;5.20;99.90;;;;;;5048310;28;20334;-65
2023/04/07 03:39:39;;;;;;;;;;;5.20;99.90;;;;;;5058517;28;19928;-64
2023/04/07 03:42:05;;;;;;;;;;;5.20;99.90;;;;;;5051012;28;19916;-64
2023/04/07 03:44:31;;;;;;;;;;;5.20;99.90;;;;;;5049729;28;19938;-65
2023/04/07 03:46:57;;;;;;;;;;;5.10;99.90;;;;;;5031998;28;19999;-64
2023/04/07 03:49:22;;;;;;;;;;;5.20;99.90;;;;;;5032734;28;20354;-63
2023/04/07 03:51:48;;;;;;;;;;;5.20;99.90;;;;;;5050485;28;19920;-65
2023/04/07 03:54:13;;;;;;;;;;;5.10;99.90;;;;;;5064352;28;19920;-65
2023/04/07 03:56:39;;;;;;;;;;;5.10;99.90;;;;;;5053163;28;19913;-64
2023/04/07 03:59:05;;;;;;;;;;;5.10;99.90;;;;;;5049065;28;19913;-65
2023/04/07 04:01:30;;;;;;;;;;;5.10;99.90;;;;;;5050786;28;20279;-64
2023/04/07 04:03:56;;;;;;;;;;;5.10;99.90;;;;;;5053778;28;20003;-64
2023/04/07 04:06:21;;;;;;;;;;;5.10;99.90;;;;;;5061319;28;19927;-63
2023/04/07 04:08:47;;;;;;;;;;;5.00;99.90;;;;;;5057084;28;19913;-64
2023/04/07 04:11:12;;;;;;;;;;;5.00;99.90;;;;;;5052831;28;20603;-64
2023/04/07 04:13:38;;;;;;;;;;;5.00;99.90;;;;;;5056293;28;19913;-64
2023/04/07 04:16:04;;;;;;;;;;;5.00;99.90;;;;;;5059413;28;19917;-63
2023/04/07 04:18:29;;;;;;;;;;;4.90;99.90;;;;;;5064413;28;19913;-64
2023/04/07 04:20:55;;;;;;;;;;;4.90;99.90;;;;;;5062363;28;20268;-62
2023/04/07 04:23:21;;;;;;;;;;;4.90;99.90;;;;;;5068257;28;19913;-63
2023/04/07 04:25:46;;;;;;;;;;;4.90;99.90;;;;;;5064008;28;19919;-64
2023/04/07 04:28:12;;;;;;;;;;;5.00;99.90;;;;;;5063651;28;19921;-64
2023/04/07 04:30:37;;;;;;;;;;;4.90;99.90;;;;;;5063421;28;19912;-64
2023/04/07 04:33:03;;;;;;;;;;;4.90;99.90;;;;;;5057088;28;19931;-64
2023/04/07 04:35:29;;;;;;;;;;;4.80;99.90;;;;;;5063451;28;19995;-64
2023/04/07 04:37:54;;;;;;;;;;;4.80;99.90;;;;;;5062518;28;19919;-63
2023/04/07 04:40:20;;;;;;;;;;;4.80;99.90;;;;;;5057546;28;19935;-64
2023/04/07 04:42:46;;;;;;;;;;;4.80;99.90;;;;;;5064258;28;19913;-64
2023/04/07 04:45:11;;;;;;;;;;;4.90;99.90;;;;;;5052726;28;19929;-64
2023/04/07 04:47:37;;;;;;;;;;;4.80;99.90;;;;;;5064661;28;19966;-64
2023/04/07 04:50:05;;;;;;;;;;;4.90;99.90;;;;;;5057809;28;20388;-64
2023/04/07 04:52:31;;;;;;;;;;;4.80;99.90;;;;;;5064820;28;19913;-64
2023/04/07 04:54:56;;;;;;;;;;;4.80;99.90;;;;;;5062132;28;19959;-65
2023/04/07 04:57:22;;;;;;;;;;;4.80;99.90;;;;;;5064101;28;19920;-64
2023/04/07 04:59:47;;;;;;;;;;;4.80;99.90;;;;;;5062290;28;20283;-65
2023/04/07 05:02:13;;;;;;;;;;;4.80;99.90;;;;;;5055128;28;20456;-65
2023/04/07 05:04:38;;;;;;;;;;;4.80;99.90;;;;;;5064505;28;19916;-63
2023/04/07 05:07:04;;;;;;;;;;;4.70;99.90;;;;;;5063590;28;20378;-63
2023/04/07 05:09:30;;;;;;;;;;;4.70;99.90;;;;;;5064094;28;19916;-64
2023/04/07 05:11:56;;;;;;;;;;;4.70;99.90;;;;;;5060903;28;20003;-64
2023/04/07 05:14:22;;;;;;;;;;;4.70;99.90;;;;;;5060196;28;20367;-64
2023/04/07 05:16:47;;;;;;;;;;;4.70;99.90;;;;;;5065996;28;20012;-65
2023/04/07 05:19:13;;;;;;;;;;;4.70;99.90;;;;;;5065887;28;20292;-65
2023/04/07 05:21:39;;;;;;;;;;;4.70;99.90;;;;;;5062549;28;19959;-65
2023/04/07 05:24:05;;;;;;;;;;;4.70;99.90;;;;;;5065636;28;19955;-64
2023/04/07 05:26:30;;;;;;;;;;;4.70;99.90;;;;;;5053661;28;19913;-65
2023/04/07 05:28:56;;;;;;;;;;;4.70;99.90;;;;;;5061593;28;19912;-65
2023/04/07 05:31:22;;;;;;;;;;;4.70;99.90;;;;;;5060559;28;19920;-65
2023/04/07 05:33:47;;;;;;;;;;;4.70;99.90;;;;;;5065244;28;19920;-65
2023/04/07 05:36:13;;;;;;;;;;;4.70;99.90;;;;;;5065251;28;20354;-65
2023/04/07 05:38:38;;;;;;;;;;;4.70;99.90;;;;;;5058901;28;20385;-65
2023/04/07 05:41:04;;;;;;;;;;;4.70;99.90;;;;;;5050211;28;20291;-64
2023/04/07 05:43:29;;;;;;;;;;;4.70;99.90;;;;;;5052288;28;19920;-65
2023/04/07 05:45:55;;;;;;;;;;;4.80;99.90;;;;;;5052880;28;19959;-64
2023/04/07 05:48:21;;;;;;;;;;;4.80;99.90;;;;;;5052321;28;19920;-64
2023/04/07 05:50:46;;;;;;;;;;;4.80;99.90;;;;;;5051724;28;19919;-64
2023/04/07 05:53:12;;;;;;;;;;;4.80;99.90;;;;;;5053363;28;19966;-64
2023/04/07 05:55:37;;;;;;;;;;;4.80;99.90;;;;;;5051006;28;20379;-64
2023/04/07 05:58:03;;;;;;;;;;;4.90;99.90;;;;;;5046888;28;20422;-64
2023/04/07 06:00:29;;;;;;;;;;;4.90;99.90;;;;;;5050657;28;19960;-65
2023/04/07 06:02:54;;;;;;;;;;;4.90;99.90;;;;;;5048727;28;19924;-62
2023/04/07 06:05:20;;;;;;;;;;;4.90;99.90;;;;;;5052407;28;19913;-65
2023/04/07 06:07:45;;;;;;;;;;;4.90;99.90;;;;;;5052267;28;20399;-65
2023/04/07 06:10:11;;;;;;;;;;;5.00;99.90;;;;;;5050072;28;19917;-65
2023/04/07 06:12:36;;;;;;;;;;;5.00;99.90;;;;;;5051343;28;20435;-65
2023/04/07 06:15:02;;;;;;;;;;;5.00;99.90;;;;;;5050032;28;20474;-65
2023/04/07 06:17:28;;;;;;;;;;;5.10;99.90;;;;;;5041425;28;19917;-65
2023/04/07 06:19:53;;;;;;;;;;;5.10;99.90;;;;;;5050048;28;19917;-64
2023/04/07 06:22:19;;;;;;;;;;;5.20;99.90;;;;;;5046653;28;19912;-65
2023/04/07 06:24:45;;;;;;;;;;;5.20;99.90;;;;;;5051711;28;20004;-65
2023/04/07 06:27:10;;;;;;;;;;;5.20;99.90;;;;;;5049115;28;19913;-65
2023/04/07 06:29:36;;;;;;;;;;;5.20;99.90;;;;;;5051504;28;20327;-63
2023/04/07 06:32:01;;;;;;;;;;;5.20;99.90;;;;;;5047192;28;19917;-66
2023/04/07 06:34:27;;;;;;;;;;;5.30;99.90;;;;;;5026809;28;19967;-63
2023/04/07 06:36:55;;;;;;;;;;;5.30;99.90;;;;;;5030187;28;19968;-64
2023/04/07 06:39:20;;;;;;;;;;;5.40;99.90;;;;;;5025718;28;20265;-64
2023/04/07 06:41:46;;;;;;;;;;;5.30;99.90;;;;;;5030173;28;19921;-65
2023/04/07 06:44:12;;;;;;;;;;;5.40;99.90;;;;;;5028609;28;20007;-65
2023/04/07 06:46:38;;;;;;;;;;;5.40;99.90;;;;;;5030887;28;19913;-65
2023/04/07 06:49:03;;;;;;;;;;;5.40;99.90;;;;;;5029035;28;19917;-65
2023/04/07 06:51:30;;;;;;;;;;;5.40;99.90;;;;;;5031226;28;20313;-64
2023/04/07 06:53:56;;;;;;;;;;;5.40;99.90;;;;;;5028692;28;19917;-65
2023/04/07 06:56:22;;;;;;;;;;;5.50;99.90;;;;;;5030146;28;19913;-66
2023/04/07 06:58:50;;;;;;;;;;;5.50;99.90;;;;;;5030272;28;20202;-65
2023/04/07 07:01:15;;;;;;;;;;;5.50;99.90;;;;;;5028770;28;20617;-65
2023/04/07 07:03:41;;;;;;;;;;;5.50;99.90;;;;;;5033356;28;20384;-65
2023/04/07 07:06:07;;;;;;;;;;;5.60;99.90;;;;;;5030714;28;19913;-66
2023/04/07 07:08:32;;;;;;;;;;;5.60;99.90;;;;;;5031996;28;20004;-66
2023/04/07 07:10:58;;;;;;;;;;;5.60;99.90;;;;;;5029254;28;20368;-66
2023/04/07 07:13:25;;;;;;;;;;;5.70;99.90;;;;;;5037303;28;19913;-65
2023/04/07 07:15:51;;;;;;;;;;;5.70;99.90;;;;;;5031021;28;19914;-66
2023/04/07 07:18:17;;;;;;;;;;;5.70;99.90;;;;;;5030021;28;19971;-65
2023/04/07 07:20:43;;;;;;;;;;;5.80;99.90;;;;;;5031036;28;19922;-64
2023/04/07 07:23:09;;;;;;;;;;;5.90;99.90;;;;;;5029480;28;19920;-65
2023/04/07 07:25:34;;;;;;;;;;;5.90;99.90;;;;;;5046268;28;19924;-64
2023/04/07 07:28:00;;;;;;;;;;;5.90;99.90;;;;;;5028039;28;19913;-65
2023/04/07 07:30:26;;;;;;;;;;;5.90;99.90;;;;;;5038296;28;19912;-65
2023/04/07 07:32:55;;;;;;;;;;;6.00;99.90;;;;;;5046056;28;19999;-64
2023/04/07 07:35:20;;;;;;;;;;;6.00;99.90;;;;;;5050345;28;19913;-65
2023/04/07 07:37:46;;;;;;;;;;;6.10;99.90;;;;;;5050095;28;20252;-65
2023/04/07 07:40:12;;;;;;;;;;;6.20;99.90;;;;;;5053475;28;20011;-64
2023/04/07 07:42:37;;;;;;;;;;;6.20;99.90;;;;;;5049826;28;19940;-65
2023/04/07 07:45:03;;;;;;;;;;;6.30;99.90;;;;;;5048372;28;20398;-65
2023/04/07 07:47:29;;;;;;;;;;;6.40;99.90;;;;;;5050274;28;20358;-64
2023/04/07 07:49:55;;;;;;;;;;;6.50;99.90;;;;;;5053656;28;19912;-63
2023/04/07 07:52:21;;;;;;;;;;;6.60;99.90;;;;;;5049941;28;19982;-63
2023/04/07 07:54:47;;;;;;;;;;;6.60;99.90;;;;;;5050282;28;19917;-64
2023/04/07 07:57:12;;;;;;;;;;;6.70;99.90;;;;;;5040921;28;19921;-65
2023/04/07 07:59:39;;;;;;;;;;;6.80;99.90;;;;;;5050382;28;20268;-64
2023/04/07 08:02:05;;;;;;;;;;;6.80;99.90;;;;;;5048108;28;20348;-64
2023/04/07 08:04:31;;;;;;;;;;;6.90;99.90;;;;;;5046918;28;19913;-65
2023/04/07 08:06:57;;;;;;;;;;;6.90;99.90;;;;;;5048828;28;19920;-64
2023/04/07 08:09:22;;;;;;;;;;;7.10;99.90;;;;;;5057576;28;19920;-64
2023/04/07 08:11:48;;;;;;;;;;;7.10;99.90;;;;;;5051423;28;19959;-65
2023/04/07 08:14:14;;;;;;;;;;;7.20;99.90;;;;;;5050469;28;20487;-66
2023/04/07 08:16:40;;;;;;;;;;;7.30;99.90;;;;;;5059525;28;19918;-65
2023/04/07 08:19:05;;;;;;;;;;;7.50;99.90;;;;;;5056753;28;19924;-66
2023/04/07 08:21:31;;;;;;;;;;;7.60;99.90;;;;;;5059062;28;20411;-65
2023/04/07 08:23:57;;;;;;;;;;;7.60;99.90;;;;;;5051540;28;19936;-65
2023/04/07 08:26:23;;;;;;;;;;;7.80;99.90;;;;;;5051084;28;19913;-65
2023/04/07 08:28:51;;;;;;;;;;;7.80;99.90;;;;;;5054687;28;19935;-65
2023/04/07 08:31:21;;;;;;;;;;;8.00;99.90;;;;;;5058064;28;19944;-64
2023/04/07 08:33:47;;;;;;;;;;;8.20;99.90;;;;;;5056560;28;19963;-65
2023/04/07 08:36:12;;;;;;;;;;;8.20;99.90;;;;;;5039916;28;19960;-65
2023/04/07 08:38:38;;;;;;;;;;;8.30;99.90;;;;;;5057568;28;19956;-66
2023/04/07 08:41:08;;;;;;;;;;;8.40;99.90;;;;;;5056919;28;20014;-64
2023/04/07 08:43:35;;;;;;;;;;;8.50;99.90;;;;;;5048005;28;19966;-65
2023/04/07 08:46:01;;;;;;;;;;;8.60;99.90;;;;;;5057273;28;20395;-64
2023/04/07 08:48:32;;;;;;;;;;;8.70;99.90;;;;;;5060873;28;19924;-65
2023/04/07 08:51:03;;;;;;;;;;;8.80;99.90;;;;;;5054671;28;19921;-63
2023/04/07 08:53:34;;;;;;;;;;;8.90;99.90;;;;;;5058367;28;19916;-64
2023/04/07 08:56:00;;;;;;;;;;;9.00;99.90;;;;;;5053103;28;19992;-65
2023/04/07 08:58:26;;;;;;;;;;;9.10;99.90;;;;;;5054838;28;19912;-66
2023/04/07 09:00:52;;;;;;;;;;;9.20;99.90;;;;;;5056976;28;20014;-64
2023/04/07 09:03:18;;;;;;;;;;;9.40;99.90;;;;;;5060833;28;19944;-64
2023/04/07 09:05:45;;;;;;;;;;;9.60;99.90;;;;;;5061074;28;20321;-64
2023/04/07 09:08:11;;;;;;;;;;;9.70;99.90;;;;;;5055342;28;19938;-64
2023/04/07 09:10:40;;;;;;;;;;;10.00;99.90;;;;;;5036067;28;19913;-64
2023/04/07 09:13:11;;;;;;;;;;;10.10;99.90;;;;;;5033550;28;19913;-64
2023/04/07 09:15:36;;;;;;;;;;;10.20;99.90;;;;;;5055965;28;20356;-64
2023/04/07 09:18:02;;;;;;;;;;;10.30;99.90;;;;;;5064202;28;20003;-65
2023/04/07 09:20:48;;;;;;;;;;;10.40;99.90;;;;;;5062996;28;19928;-64
2023/04/07 09:23:27;;;;;;;;;;;10.40;99.90;;;;;;5040542;28;19913;-65
2023/04/07 09:25:53;;;;;;;;;;;10.60;99.90;;;;;;5056157;28;20402;-64
2023/04/07 09:28:18;;;;;;;;;;;10.90;99.90;;;;;;5056825;28;20371;-64
2023/04/07 09:30:51;;;;;;;;;;;11.30;99.90;;;;;;5062211;28;20033;-65
2023/04/07 09:33:25;;;;;;;;;;;11.60;99.90;;;;;;5059826;28;20344;-65
2023/04/07 09:35:55;;;;;;;;;;;11.80;99.90;;;;;;5043334;28;19974;-65
2023/04/07 09:38:21;;;;;;;;;;;12.00;99.90;;;;;;5031793;28;19929;-63
2023/04/07 09:40:47;;;;;;;;;;;12.00;99.90;;;;;;5021961;28;19928;-64
2023/04/07 09:43:17;;;;;;;;;;;12.10;99.90;;;;;;5045112;28;20383;-64
2023/04/07 09:45:43;;;;;;;;;;;12.30;99.90;;;;;;5031722;28;20299;-65
2023/04/07 09:48:22;;;;;;;;;;;12.30;99.90;;;;;;5042837;28;19913;-64
2023/04/07 09:50:48;;;;;;;;;;;12.40;99.90;;;;;;5038172;28;19913;-64
2023/04/07 09:53:14;;;;;;;;;;;12.40;99.90;;;;;;5043474;28;19913;-64
2023/04/07 09:55:41;;;;;;;;;;;12.40;99.90;;;;;;5042087;28;19951;-64
2023/04/07 09:58:07;;;;;;;;;;;12.50;99.90;;;;;;5035996;28;19921;-64
2023/04/07 10:00:34;;;;;;;;;;;12.60;99.90;;;;;;5049891;28;20417;-64
2023/04/07 10:03:00;;;;;;;;;;;12.60;99.90;;;;;;5040070;28;19936;-64
2023/04/07 10:05:26;;;;;;;;;;;13.00;99.90;;;;;;5041458;28;19917;-64
2023/04/07 10:07:53;;;;;;;;;;;13.00;99.90;;;;;;5042840;28;19944;-64
2023/04/07 10:10:19;;;;;;;;;;;13.30;99.90;;;;;;5042716;28;19913;-66
2023/04/07 10:12:44;;;;;;;;;;;13.30;99.90;;;;;;5041016;28;20291;-65
2023/04/07 10:15:12;;;;;;;;;;;13.20;99.90;;;;;;5041324;28;20277;-65
2023/04/07 10:17:39;;;;;;;;;;;13.20;99.90;;;;;;5045006;28;20380;-64
2023/04/07 10:20:06;;;;;;;;;;;13.20;99.90;;;;;;5038681;28;19932;-66
2023/04/07 10:22:31;;;;;;;;;;;13.00;99.90;;;;;;5036450;28;19920;-66
2023/04/07 10:24:57;;;;;;;;;;;12.90;99.90;;;;;;5041174;28;19917;-66
2023/04/07 10:27:27;;;;;;;;;;;12.70;99.90;;;;;;5043261;28;19912;-65
2023/04/07 10:29:53;;;;;;;;;;;12.50;99.90;;;;;;5044413;28;19923;-65
2023/04/07 10:32:18;;;;;;;;;;;12.60;99.90;;;;;;5048149;28;20023;-66
2023/04/07 10:34:52;;;;;;;;;;;12.70;99.90;;;;;;5051154;28;20019;-66
2023/04/07 10:37:20;;;;;;;;;;;12.80;99.90;;;;;;5044592;28;19913;-66
2023/04/07 10:39:45;;;;;;;;;;;12.90;99.90;;;;;;5048265;28;20040;-67
2023/04/07 10:42:29;;;;;;;;;;;13.20;99.90;;;;;;5041161;28;20403;-65
2023/04/07 10:44:57;;;;;;;;;;;13.60;99.90;;;;;;5047412;28;19947;-65
2023/04/07 10:47:22;;;;;;;;;;;13.90;99.90;;;;;;5051079;28;19913;-65
2023/04/07 10:50:07;;;;;;;;;;;13.90;99.90;;;;;;5047800;28;19966;-66
2023/04/07 10:52:33;;;;;;;;;;;13.90;99.90;;;;;;5044589;28;19964;-66
2023/04/07 10:55:17;;;;;;;;;;;14.20;99.90;;;;;;5052547;28;19963;-66
2023/04/07 10:58:02;;;;;;;;;;;14.30;99.90;;;;;;5051190;28;19951;-67
2023/04/07 11:00:28;;;;;;;;;;;14.20;99.90;;;;;;5049843;28;19917;-66
2023/04/07 11:02:53;;;;;;;;;;;14.30;99.90;;;;;;5046412;28;19967;-66
2023/04/07 11:05:21;;;;;;;;;;;14.50;99.90;;;;;;5063224;28;20303;-66
2023/04/07 11:07:52;;;;;;;;;;;14.40;99.90;;;;;;5051551;28;19955;-67
2023/04/07 11:10:19;;;;;;;;;;;14.00;99.90;;;;;;5048632;28;20375;-66
2023/04/07 11:12:57;;;;;;;;;;;14.00;99.90;;;;;;5046046;28;19980;-66
2023/04/07 11:15:23;;;;;;;;;;;13.90;99.90;;;;;;5046040;28;20434;-66
2023/04/07 11:18:08;;;;;;;;;;;13.90;99.90;;;;;;5051859;28;19913;-66
2023/04/07 11:20:40;;;;;;;;;;;14.50;99.90;;;;;;5049637;28;19921;-66
2023/04/07 11:23:06;;;;;;;;;;;15.70;99.90;;;;;;5042526;28;19967;-65
2023/04/07 11:25:32;;;;;;;;;;;15.60;99.90;;;;;;5049006;28;19912;-65
2023/04/07 11:27:58;;;;;;;;;;;15.30;99.90;;;;;;5058596;28;19956;-65
2023/04/07 11:30:24;;;;;;;;;;;15.10;99.90;;;;;;5059240;28;20288;-66
2023/04/07 11:32:50;;;;;;;;;;;15.60;99.90;;;;;;5047341;28;19921;-65
2023/04/07 11:35:15;;;;;;;;;;;16.10;99.90;;;;;;5047044;28;19921;-65
2023/04/07 11:37:41;;;;;;;;;;;16.40;99.90;;;;;;5051290;28;20023;-66
2023/04/07 11:40:07;;;;;;;;;;;17.10;99.90;;;;;;5049914;28;19924;-65
2023/04/07 11:42:33;;;;;;;;;;;18.10;99.90;;;;;;5045349;28;19917;-66
2023/04/07 11:44:59;;;;;;;;;;;18.50;99.90;;;;;;5050241;28;19943;-65
2023/04/07 11:47:38;;;;;;;;;;;18.70;97.50;;;;;;5054357;28;19913;-65
2023/04/07 11:50:03;;;;;;;;;;;18.30;98.50;;;;;;5041991;28;20383;-65
2023/04/07 11:52:39;;;;;;;;;;;18.40;99.40;;;;;;5056726;28;20006;-65
2023/04/07 11:55:05;;;;;;;;;;;18.40;96.20;;;;;;5040335;28;20051;-66
2023/04/07 11:57:31;;;;;;;;;;;18.90;93.80;;;;;;5048844;28;19978;-66
2023/04/07 12:00:10;;;;;;;;;;;19.00;90.40;;;;;;5043574;28;19924;-63
2023/04/07 12:02:35;;;;;;;;;;;19.50;85.70;;;;;;5032519;28;19927;-66
2023/04/07 12:05:01;;;;;;;;;;;19.50;83.20;;;;;;5047204;28;19912;-66
2023/04/07 12:07:27;;;;;;;;;;;19.00;84.70;;;;;;5054589;28;20363;-65
2023/04/07 12:09:53;;;;;;;;;;;18.30;84.90;;;;;;5047327;28;20279;-64
2023/04/07 12:12:28;;;;;;;;;;;18.00;86.70;;;;;;5044482;28;19940;-66
2023/04/07 12:14:55;;;;;;;;;;;17.90;93.00;;;;;;5048601;28;19919;-66
2023/04/07 12:17:27;;;;;;;;;;;18.00;91.80;;;;;;5051991;28;19963;-66
2023/04/07 12:19:52;;;;;;;;;;;18.10;84.80;;;;;;5031237;28;19917;-66
2023/04/07 12:22:18;;;;;;;;;;;17.50;87.70;;;;;;5048228;28;19959;-66
2023/04/07 12:24:44;;;;;;;;;;;16.80;91.70;;;;;;5052023;28;19913;-66
2023/04/07 12:27:09;;;;;;;;;;;16.40;94.40;;;;;;5045086;28;19913;-66
2023/04/07 12:29:36;;;;;;;;;;;16.50;97.50;;;;;;5047432;28;19917;-66
2023/04/07 12:32:02;;;;;;;;;;;16.90;93.60;;;;;;5051309;28;19948;-66
2023/04/07 12:34:28;;;;;;;;;;;17.90;91.20;;;;;;5049496;28;19959;-66
2023/04/07 12:36:54;;;;;;;;;;;18.80;81.40;;;;;;5047984;28;19913;-66
2023/04/07 12:39:20;;;;;;;;;;;19.80;75.50;;;;;;5048719;28;20015;-64
2023/04/07 12:41:47;;;;;;;;;;;19.90;63.70;;;;;;5044098;28;20336;-66
2023/04/07 12:44:13;;;;;;;;;;;19.90;63.60;;;;;;5058931;28;19917;-65
2023/04/07 12:46:39;;;;;;;;;;;19.70;63.00;;;;;;5059694;28;19920;-65
2023/04/07 12:49:05;;;;;;;;;;;19.60;65.00;;;;;;5041651;28;19913;-65
2023/04/07 12:51:32;;;;;;;;;;;19.40;66.70;;;;;;5049984;28;20349;-66
2023/04/07 12:53:59;;;;;;;;;;;18.80;62.30;;;;;;5052235;28;20141;-66
2023/04/07 12:56:25;;;;;;;;;;;18.30;66.50;;;;;;5047840;28;19913;-65
2023/04/07 12:58:52;;;;;;;;;;;18.90;70.80;;;;;;5050232;28;19913;-65
2023/04/07 13:01:18;;;;;;;;;;;19.70;64.50;;;;;;5061833;28;19928;-65
2023/04/07 13:03:43;;;;;;;;;;;20.00;57.60;;;;;;5044769;28;19967;-64
2023/04/07 13:06:09;;;;;;;;;;;20.30;57.60;;;;;;5070310;28;19973;-65
2023/04/07 13:08:35;;;;;;;;;;;20.40;58.00;;;;;;5064676;28;19924;-65
2023/04/07 13:11:01;;;;;;;;;;;20.50;55.00;;;;;;5062287;28;19920;-64
2023/04/07 13:13:26;;;;;;;;;;;20.60;54.60;;;;;;5052233;28;19919;-65
2023/04/07 13:15:52;;;;;;;;;;;20.80;54.50;;;;;;5043341;28;20010;-65
2023/04/07 13:18:17;;;;;;;;;;;21.30;53.60;;;;;;5056140;28;19963;-65
2023/04/07 13:20:43;;;;;;;;;;;21.80;51.80;;;;;;5054359;28;19924;-65
2023/04/07 13:23:09;;;;;;;;;;;22.20;51.10;;;;;;5061163;28;19916;-65
2023/04/07 13:25:35;;;;;;;;;;;21.10;49.60;;;;;;5061672;28;20312;-66
2023/04/07 13:28:00;;;;;;;;;;;20.10;52.90;;;;;;5053180;28;19960;-65
2023/04/07 13:30:26;;;;;;;;;;;20.30;51.30;;;;;;5042482;28;19913;-66
2023/04/07 13:32:52;;;;;;;;;;;20.90;52.70;;;;;;5060442;28;20297;-64
2023/04/07 13:35:17;;;;;;;;;;;21.50;51.60;;;;;;5060068;28;19916;-65
2023/04/07 13:37:43;;;;;;;;;;;21.60;50.00;;;;;;5057754;28;19948;-65
2023/04/07 13:40:10;;;;;;;;;;;20.40;50.20;;;;;;5050985;28;20279;-66
2023/04/07 13:42:35;;;;;;;;;;;18.90;52.30;;;;;;5050001;28;19983;-65
2023/04/07 13:45:01;;;;;;;;;;;18.10;54.50;;;;;;5042068;28;20384;-66
2023/04/07 13:47:29;;;;;;;;;;;17.60;56.20;;;;;;5052202;28;19913;-67
2023/04/07 13:49:54;;;;;;;;;;;17.40;59.50;;;;;;5061004;28;19913;-66
2023/04/07 13:52:20;;;;;;;;;;;17.20;62.90;;;;;;5059742;28;19920;-65
2023/04/07 13:54:46;;;;;;;;;;;17.20;64.10;;;;;;5063879;28;19913;-65
2023/04/07 13:57:13;;;;;;;;;;;17.90;66.90;;;;;;5058065;28;19917;-66
2023/04/07 13:59:39;;;;;;;;;;;19.40;91.50;;;;;;5058565;28;19938;-66
2023/04/07 14:02:04;;;;;;;;;;;20.50;79.80;;;;;;5036414;28;19948;-66
2023/04/07 14:04:30;;;;;;;;;;;21.40;80.00;;;;;;5034622;28;19962;-66
2023/04/07 14:06:56;;;;;;;;;;;21.30;81.50;;;;;;5068383;28;19936;-66
2023/04/07 14:09:21;;;;;;;;;;;20.10;90.50;;;;;;5058998;28;19916;-65
2023/04/07 14:11:47;;;;;;;;;;;19.30;97.30;;;;;;5056945;28;19912;-65
2023/04/07 14:14:13;;;;;;;;;;;19.40;97.00;;;;;;5061639;28;20110;-65
2023/04/07 14:16:38;;;;;;;;;;;19.80;92.80;;;;;;5064723;28;20016;-67
2023/04/07 14:19:04;;;;;;;;;;;19.10;94.40;;;;;;5039771;28;19979;-65
2023/04/07 14:21:30;;;;;;;;;;;18.30;97.70;;;;;;5051814;28;19925;-65
2023/04/07 14:23:55;;;;;;;;;;;17.30;99.90;;;;;;5048222;28;19913;-66